EPGD/GDN METAR and TAF weather

Enter ICAO airport designator
Station Type Date Time Source
EPGD METAR 2020/07/15 00:30 UTC NOAA

EPGD 150030Z 13005KT CAVOK 12/10 Q1013


Station Type Date Time Source
EPGD Decoded METAR 2020/07/15 00:30 UTC NOAA

Gdansk-Rebiechowo, Poland (EPGD) 54-23N 018-28E 138M
Jul 14, 2020 - 08:30 PM EDT / 2020.07.15 0030 UTC
Wind: from the SE (130 degrees) at 6 MPH (5 KT):0
Visibility: greater than 7 mile(s):0
Temperature: 53 F (12 C)
Dew Point: 50 F (10 C)
Relative Humidity: 87%
Pressure (altimeter): 29.91 in. Hg (1013 hPa)
ob: EPGD 150030Z 13005KT CAVOK 12/10 Q1013
cycle: 0

Station Type Date Time Source
EPGD TAF 2020/07/14 18:33 UTC NOAA

TAF TAF EPGD 141730Z 1418/1518 08010KT CAVOK
BECMG 1418/1421 14005KT
TEMPO 1509/1518 16015G25KT PROB40
TEMPO 1513/1518 -TSRA BKN030CB

Example: see airport list